Time;durP1;ratioP1;P1;durP2;ratioP2;P2;SDS_P1;SDS_P2;PMS_P1;PMS_P2;Temp;Humidity;BMP_temperature;BMP_pressure;BME280_temperature;BME280_humidity;BME280_pressure;Samples;Min_cycle;Max_cycle;Signal;HPM_P1;HPM_P2
2023/03/26 00:01:49;;;;;;;16.15;2.97;;;7.20;99.90;;;;;;5109226;27;20039;-72
2023/03/26 00:04:20;;;;;;;13.38;2.97;;;7.20;99.90;;;;;;5105986;27;20069;-72
2023/03/26 00:06:47;;;;;;;15.32;2.78;;;7.20;99.90;;;;;;5102960;27;20054;-72
2023/03/26 00:09:14;;;;;;;14.45;2.63;;;7.20;99.90;;;;;;5115255;27;20181;-72
2023/03/26 00:11:41;;;;;;;18.45;2.67;;;7.30;99.90;;;;;;5109039;27;20046;-72
2023/03/26 00:14:08;;;;;;;13.52;2.45;;;7.30;99.90;;;;;;5101987;27;20505;-71
2023/03/26 00:16:34;;;;;;;12.05;2.42;;;7.30;99.90;;;;;;5110408;27;20047;-72
2023/03/26 00:19:01;;;;;;;16.58;3.10;;;7.30;99.90;;;;;;5096545;27;20040;-73
2023/03/26 00:21:29;;;;;;;11.00;2.25;;;7.30;99.90;;;;;;5106920;27;20433;-71
2023/03/26 00:24:03;;;;;;;11.23;2.95;;;7.30;99.90;;;;;;5111221;27;20084;-71
2023/03/26 00:26:30;;;;;;;17.45;3.10;;;7.30;99.90;;;;;;5113205;27;20077;-71
2023/03/26 00:28:56;;;;;;;13.13;2.97;;;7.30;99.90;;;;;;5089411;27;20039;-72
2023/03/26 00:31:22;;;;;;;16.27;3.17;;;7.20;99.90;;;;;;5112016;27;20047;-73
2023/03/26 00:33:54;;;;;;;11.80;3.05;;;7.10;99.90;;;;;;5101132;27;20039;-71
2023/03/26 00:36:20;;;;;;;18.27;2.93;;;7.00;99.90;;;;;;5097205;27;20110;-70
2023/03/26 00:38:47;;;;;;;10.25;2.83;;;7.00;99.90;;;;;;5106616;27;20602;-71
2023/03/26 00:41:21;;;;;;;13.25;3.00;;;7.10;99.90;;;;;;5112334;27;20135;-71
2023/03/26 00:43:49;;;;;;;14.43;2.95;;;7.10;99.90;;;;;;5096939;27;20093;-71
2023/03/26 00:46:16;;;;;;;13.95;3.05;;;7.10;99.90;;;;;;5108226;27;20443;-72
2023/03/26 00:48:42;;;;;;;13.25;3.35;;;7.20;99.90;;;;;;5108561;27;20039;-71
2023/03/26 00:51:09;;;;;;;12.88;2.60;;;7.20;99.90;;;;;;5112327;27;20041;-71
2023/03/26 00:53:37;;;;;;;15.20;3.05;;;7.20;99.90;;;;;;5102133;28;20044;-71
2023/03/26 00:56:04;;;;;;;16.77;3.00;;;7.20;99.90;;;;;;5102472;27;20220;-70
2023/03/26 00:58:29;;;;;;;11.23;2.50;;;7.20;99.90;;;;;;5105685;27;20054;-71
2023/03/26 01:00:58;;;;;;;11.73;2.90;;;7.30;99.90;;;;;;5110578;27;20043;-71
2023/03/26 01:03:27;;;;;;;11.23;2.90;;;7.30;99.90;;;;;;5091670;27;20545;-71
2023/03/26 01:06:03;;;;;;;13.10;2.90;;;7.30;99.90;;;;;;5092895;28;20067;-71
2023/03/26 01:08:31;;;;;;;16.85;3.17;;;7.40;99.90;;;;;;5094156;27;20042;-71
2023/03/26 01:11:05;;;;;;;10.52;2.85;;;7.30;99.90;;;;;;5109913;27;20114;-70
2023/03/26 01:13:36;;;;;;;14.25;3.03;;;7.40;99.90;;;;;;5104688;27;20431;-70
2023/03/26 01:16:08;;;;;;;12.45;2.70;;;7.40;99.90;;;;;;5111380;27;20039;-70
2023/03/26 01:18:39;;;;;;;12.65;3.00;;;7.40;99.90;;;;;;5086634;27;20031;-70
2023/03/26 01:21:08;;;;;;;12.18;3.22;;;7.40;99.90;;;;;;5108103;27;20039;-71
2023/03/26 01:23:42;;;;;;;12.98;3.20;;;7.40;99.90;;;;;;5109188;27;20122;-71
2023/03/26 01:26:22;;;;;;;16.88;3.15;;;7.40;99.90;;;;;;5107189;28;20042;-72
2023/03/26 01:28:52;;;;;;;13.07;2.78;;;7.40;99.90;;;;;;5102942;28;20051;-71
2023/03/26 01:31:50;;;;;;;13.65;2.47;;;7.40;99.90;;;;;;5091742;28;20074;-71
2023/03/26 01:34:36;;;;;;;15.98;3.35;;;7.40;99.90;;;;;;5098218;28;20054;-70
2023/03/26 01:37:19;;;;;;;14.88;3.00;;;7.50;99.90;;;;;;5105931;27;20129;-71
2023/03/26 01:39:56;;;;;;;15.88;3.40;;;7.50;99.90;;;;;;5099518;28;20035;-70
2023/03/26 01:42:36;;;;;;;14.82;3.13;;;7.40;99.90;;;;;;5111740;28;20047;-72
2023/03/26 01:45:12;;;;;;;13.95;3.35;;;7.50;99.90;;;;;;5105234;28;20047;-71
2023/03/26 01:47:39;;;;;;;18.17;3.35;;;7.50;99.90;;;;;;5109758;27;20108;-70
2023/03/26 01:50:06;;;;;;;17.35;3.22;;;7.40;99.90;;;;;;5107240;28;20059;-71
2023/03/26 01:52:31;;;;;;;10.50;2.90;;;7.40;99.90;;;;;;5111975;27;20110;-71
2023/03/26 01:54:58;;;;;;;15.32;3.00;;;7.40;99.90;;;;;;5097115;27;20122;-71
2023/03/26 01:57:54;;;;;;;14.25;3.22;;;7.30;99.90;;;;;;5096021;28;20088;-72
2023/03/26 02:00:33;;;;;;;13.48;3.08;;;7.20;99.90;;;;;;5105261;27;20039;-70
2023/03/26 02:03:19;;;;;;;13.57;3.50;;;7.10;99.90;;;;;;5093814;27;20378;-71
2023/03/26 02:05:49;;;;;;;14.85;3.40;;;7.00;99.90;;;;;;5096718;28;20101;-70
2023/03/26 02:08:19;;;;;;;21.13;3.42;;;6.90;99.90;;;;;;5100783;27;20082;-70
2023/03/26 02:10:50;;;;;;;12.15;2.92;;;6.80;99.90;;;;;;5107660;27;20045;-70
2023/03/26 02:13:15;;;;;;;14.20;3.17;;;6.70;99.90;;;;;;5091362;27;20105;-70
2023/03/26 02:15:57;;;;;;;15.63;3.03;;;6.60;99.90;;;;;;5115583;27;20046;-70
2023/03/26 02:18:23;;;;;;;11.77;2.83;;;6.50;99.90;;;;;;5102502;27;20058;-69
2023/03/26 02:20:51;;;;;;;11.05;2.63;;;6.40;99.90;;;;;;5107417;27;20040;-69
2023/03/26 02:23:19;;;;;;;16.73;3.75;;;6.30;99.90;;;;;;5095445;27;20166;-70
2023/03/26 02:25:45;;;;;;;12.20;2.92;;;6.30;99.90;;;;;;5113766;27;20455;-70
2023/03/26 02:28:10;;;;;;;15.55;2.92;;;6.30;99.90;;;;;;5110506;27;20613;-70
2023/03/26 02:30:36;;;;;;;17.98;3.25;;;6.20;99.90;;;;;;5102661;27;20028;-70
2023/03/26 02:33:02;;;;;;;15.10;3.17;;;6.30;99.90;;;;;;5113186;27;20609;-70
2023/03/26 02:35:27;;;;;;;13.70;3.67;;;6.30;99.90;;;;;;5108461;27;20247;-70
2023/03/26 02:37:53;;;;;;;16.20;3.58;;;6.30;99.90;;;;;;5113016;27;20069;-70
2023/03/26 02:40:21;;;;;;;13.00;3.08;;;6.30;99.90;;;;;;5110715;27;20074;-70
2023/03/26 02:42:47;;;;;;;17.23;3.40;;;6.30;99.90;;;;;;5098808;27;20385;-70
2023/03/26 02:45:13;;;;;;;14.23;3.35;;;6.30;99.90;;;;;;5106175;27;20500;-70
2023/03/26 02:47:38;;;;;;;18.15;3.50;;;6.30;99.90;;;;;;5102885;27;20039;-70
2023/03/26 02:50:04;;;;;;;16.30;3.70;;;6.30;99.90;;;;;;5105248;27;20058;-69
2023/03/26 02:52:30;;;;;;;15.48;3.95;;;6.20;99.90;;;;;;5089318;27;20045;-69
2023/03/26 02:54:56;;;;;;;14.40;3.50;;;6.20;99.90;;;;;;5105425;27;20042;-69
2023/03/26 02:57:22;;;;;;;13.68;3.75;;;6.30;99.90;;;;;;5107012;27;20049;-69
2023/03/26 02:59:49;;;;;;;13.32;3.20;;;6.20;99.90;;;;;;5103310;27;20085;-69
2023/03/26 03:02:15;;;;;;;13.70;3.40;;;6.20;99.90;;;;;;5087795;27;20039;-69
2023/03/26 03:04:41;;;;;;;20.10;3.67;;;6.20;99.90;;;;;;5105085;27;20131;-69
2023/03/26 03:07:06;;;;;;;16.75;3.33;;;6.30;99.90;;;;;;5093667;27;20039;-70
2023/03/26 03:09:33;;;;;;;13.15;3.50;;;6.20;99.90;;;;;;5101810;27;20103;-70
2023/03/26 03:11:59;;;;;;;15.30;3.50;;;6.10;99.90;;;;;;5108334;27;20364;-69
2023/03/26 03:14:24;;;;;;;16.48;3.55;;;6.10;99.90;;;;;;5106505;27;20043;-69
2023/03/26 03:16:50;;;;;;;20.58;4.05;;;6.10;99.90;;;;;;5106407;27;20071;-69
2023/03/26 03:19:16;;;;;;;19.35;3.55;;;5.90;99.90;;;;;;5107153;27;20039;-69
2023/03/26 03:21:42;;;;;;;19.25;4.18;;;5.90;99.90;;;;;;5106327;27;20545;-69
2023/03/26 03:24:08;;;;;;;18.08;3.90;;;5.80;99.90;;;;;;5107275;27;20047;-69
2023/03/26 03:26:35;;;;;;;21.42;4.28;;;5.80;99.90;;;;;;5106043;27;20478;-69
2023/03/26 03:29:01;;;;;;;23.98;4.03;;;5.80;99.90;;;;;;5108933;27;20043;-69
2023/03/26 03:31:27;;;;;;;15.02;3.90;;;5.80;99.90;;;;;;5103653;27;20027;-69
2023/03/26 03:33:53;;;;;;;26.73;4.30;;;5.70;99.90;;;;;;5108567;27;20522;-69
2023/03/26 03:36:21;;;;;;;16.42;3.88;;;5.80;99.90;;;;;;5106914;27;20039;-69
2023/03/26 03:38:47;;;;;;;11.15;3.55;;;5.70;99.90;;;;;;5104718;27;20043;-69
2023/03/26 03:41:13;;;;;;;12.32;3.83;;;5.60;99.90;;;;;;5103471;27;20067;-69
2023/03/26 03:43:39;;;;;;;15.48;4.25;;;5.70;99.90;;;;;;5104170;27;20473;-69
2023/03/26 03:46:04;;;;;;;16.33;3.20;;;5.70;99.90;;;;;;5106636;27;20081;-69
2023/03/26 03:48:30;;;;;;;11.05;3.70;;;5.70;99.90;;;;;;5104877;27;20134;-69
2023/03/26 03:50:56;;;;;;;12.98;3.45;;;5.80;99.90;;;;;;5103575;27;20034;-69
2023/03/26 03:53:24;;;;;;;11.35;3.08;;;5.70;99.90;;;;;;5107663;27;20035;-69
2023/03/26 03:55:54;;;;;;;12.95;3.30;;;5.70;99.90;;;;;;5103305;27;20073;-69
2023/03/26 03:58:21;;;;;;;15.13;3.40;;;5.70;99.90;;;;;;5107192;27;20293;-69
2023/03/26 04:00:51;;;;;;;10.60;2.80;;;5.70;99.90;;;;;;5104506;27;20401;-69
2023/03/26 04:03:18;;;;;;;16.73;3.80;;;5.80;99.90;;;;;;5111056;27;20493;-69
2023/03/26 04:05:48;;;;;;;11.80;3.63;;;5.80;99.90;;;;;;5112961;27;20047;-69
2023/03/26 04:08:17;;;;;;;11.63;3.22;;;5.80;99.90;;;;;;5101668;27;20046;-69
2023/03/26 04:10:43;;;;;;;11.77;3.40;;;5.90;99.90;;;;;;5104164;27;20118;-69
2023/03/26 04:13:10;;;;;;;16.85;3.83;;;5.80;99.90;;;;;;5106781;27;20042;-69
2023/03/26 04:15:36;;;;;;;10.68;3.08;;;5.80;99.90;;;;;;5107399;27;20043;-69
2023/03/26 04:18:02;;;;;;;12.88;2.97;;;5.80;99.90;;;;;;5106238;27;20524;-69
2023/03/26 04:20:27;;;;;;;8.27;2.50;;;5.90;99.90;;;;;;5099066;28;20496;-69
2023/03/26 04:22:53;;;;;;;12.25;2.78;;;5.90;99.90;;;;;;5107240;27;20031;-69
2023/03/26 04:25:20;;;;;;;12.02;2.70;;;5.80;99.90;;;;;;5113172;27;20047;-69
2023/03/26 04:27:46;;;;;;;13.48;2.88;;;5.80;99.90;;;;;;5107447;27;20046;-69
2023/03/26 04:30:16;;;;;;;14.82;3.15;;;5.90;99.90;;;;;;5108639;27;20046;-69
2023/03/26 04:32:41;;;;;;;13.52;4.20;;;5.90;99.90;;;;;;5103900;27;20050;-69
2023/03/26 04:35:10;;;;;;;11.93;3.72;;;6.00;99.90;;;;;;5110431;27;20039;-69
2023/03/26 04:37:41;;;;;;;20.23;4.07;;;5.90;99.90;;;;;;5107413;27;20042;-69
2023/03/26 04:40:16;;;;;;;19.45;3.50;;;6.00;99.90;;;;;;5106830;27;20047;-69
2023/03/26 04:42:44;;;;;;;10.55;3.53;;;6.10;99.90;;;;;;5109950;27;20378;-69
2023/03/26 04:45:11;;;;;;;18.38;4.53;;;6.00;99.90;;;;;;5097610;27;20128;-69
2023/03/26 04:47:37;;;;;;;16.33;3.83;;;6.10;99.90;;;;;;5087682;27;20038;-69
2023/03/26 04:50:09;;;;;;;14.18;4.15;;;6.10;99.90;;;;;;5111910;27;20124;-69
2023/03/26 04:52:36;;;;;;;15.57;3.85;;;6.10;99.90;;;;;;5103079;27;20043;-69
2023/03/26 04:55:02;;;;;;;11.55;3.40;;;6.10;99.90;;;;;;5095829;28;20079;-69
2023/03/26 04:57:37;;;;;;;18.52;3.70;;;6.20;99.90;;;;;;5121950;27;20074;-69
2023/03/26 05:00:13;;;;;;;11.45;3.63;;;6.20;99.90;;;;;;5103495;28;20494;-69
2023/03/26 05:02:40;;;;;;;18.80;3.58;;;6.20;99.90;;;;;;5107022;27;20070;-69
2023/03/26 05:05:06;;;;;;;9.90;3.50;;;6.20;99.90;;;;;;5109191;28;20056;-69
2023/03/26 05:07:32;;;;;;;12.98;3.63;;;6.30;99.90;;;;;;5109771;27;20312;-69
2023/03/26 05:09:57;;;;;;;17.17;4.18;;;6.30;99.90;;;;;;5103446;28;20035;-69
2023/03/26 05:12:23;;;;;;;13.35;3.80;;;6.30;99.90;;;;;;5108817;28;20050;-69
2023/03/26 05:14:49;;;;;;;12.43;3.95;;;6.30;99.90;;;;;;5101836;28;20063;-69
2023/03/26 05:17:17;;;;;;;14.07;3.85;;;6.20;99.90;;;;;;5103492;28;20490;-69
2023/03/26 05:19:43;;;;;;;14.25;3.67;;;6.30;99.90;;;;;;5110373;27;20042;-69
2023/03/26 05:22:09;;;;;;;13.15;3.80;;;6.20;99.90;;;;;;5101381;28;20393;-69
2023/03/26 05:24:34;;;;;;;13.18;4.10;;;6.30;99.90;;;;;;5101710;27;20035;-69
2023/03/26 05:27:00;;;;;;;9.40;3.40;;;6.30;99.90;;;;;;5105908;28;20226;-69
2023/03/26 05:29:26;;;;;;;11.32;3.72;;;6.40;99.90;;;;;;5102375;28;20038;-69
2023/03/26 05:31:51;;;;;;;12.32;3.80;;;6.40;99.90;;;;;;5104495;27;20040;-69
2023/03/26 05:34:18;;;;;;;14.40;4.30;;;6.40;99.90;;;;;;5109656;27;20039;-70
2023/03/26 05:36:44;;;;;;;10.25;3.60;;;6.40;99.90;;;;;;5101029;27;20043;-69
2023/03/26 05:39:09;;;;;;;11.35;4.65;;;6.40;99.90;;;;;;5111525;27;20496;-69
2023/03/26 05:41:35;;;;;;;11.05;4.03;;;6.40;99.90;;;;;;5116156;27;20118;-69
2023/03/26 05:44:01;;;;;;;15.40;4.00;;;6.40;99.90;;;;;;5111769;28;20047;-69
2023/03/26 05:46:27;;;;;;;17.77;4.10;;;6.40;99.90;;;;;;5114665;27;20104;-69
2023/03/26 05:48:53;;;;;;;12.60;4.28;;;6.40;99.90;;;;;;5110392;27;20038;-69
2023/03/26 05:51:19;;;;;;;19.15;4.50;;;6.40;99.90;;;;;;5115054;27;20118;-69
2023/03/26 05:53:45;;;;;;;13.57;4.97;;;6.50;99.90;;;;;;5114662;27;20378;-69
2023/03/26 05:56:11;;;;;;;18.02;4.95;;;6.60;99.90;;;;;;5111647;28;20043;-69
2023/03/26 05:58:36;;;;;;;12.43;4.05;;;6.60;99.90;;;;;;5103729;27;20570;-69
2023/03/26 06:01:15;;;;;;;17.52;4.63;;;6.50;99.90;;;;;;5113536;27;20046;-69
2023/03/26 06:03:43;;;;;;;11.93;4.28;;;6.60;99.90;;;;;;5107115;27;20413;-69
2023/03/26 06:06:14;;;;;;;14.43;5.07;;;6.60;99.90;;;;;;5104242;27;20061;-69
2023/03/26 06:08:50;;;;;;;14.77;4.82;;;6.60;99.90;;;;;;5109331;27;20121;-69
2023/03/26 06:11:17;;;;;;;15.63;5.35;;;6.60;99.90;;;;;;5097219;27;20035;-69
2023/03/26 06:13:44;;;;;;;16.13;5.50;;;6.60;99.90;;;;;;5093384;27;20031;-69
2023/03/26 06:16:11;;;;;;;14.95;5.05;;;6.60;99.90;;;;;;5112650;27;20043;-69
2023/03/26 06:18:37;;;;;;;17.50;5.35;;;6.70;99.90;;;;;;5113127;27;20031;-69
2023/03/26 06:21:04;;;;;;;13.80;4.78;;;6.70;99.90;;;;;;5112495;27;20130;-69
2023/03/26 06:23:31;;;;;;;11.60;4.90;;;6.70;99.90;;;;;;5109778;27;20541;-69
2023/03/26 06:25:56;;;;;;;11.85;4.78;;;6.70;99.90;;;;;;5112258;27;20035;-69
2023/03/26 06:28:22;;;;;;;15.40;5.10;;;6.70;99.90;;;;;;5110382;27;20057;-69
2023/03/26 06:30:48;;;;;;;19.52;4.97;;;6.80;99.90;;;;;;5111217;27;20092;-69
2023/03/26 06:33:14;;;;;;;16.65;5.10;;;6.80;99.90;;;;;;5112592;27;20039;-69
2023/03/26 06:35:41;;;;;;;14.65;4.70;;;6.80;99.90;;;;;;5134315;27;20447;-69
2023/03/26 06:38:07;;;;;;;13.85;4.20;;;6.90;99.90;;;;;;5113219;27;20039;-70
2023/03/26 06:40:33;;;;;;;15.90;4.60;;;6.90;99.90;;;;;;5125325;27;20061;-69
2023/03/26 06:42:59;;;;;;;16.42;4.53;;;7.10;99.90;;;;;;5108987;27;20038;-69
2023/03/26 06:45:26;;;;;;;16.70;4.22;;;7.10;99.90;;;;;;5109096;27;20481;-70
2023/03/26 06:47:52;;;;;;;20.15;3.97;;;7.20;99.90;;;;;;5096820;27;20039;-70
2023/03/26 06:50:18;;;;;;;18.02;3.47;;;7.30;99.90;;;;;;5112570;27;20100;-70
2023/03/26 06:52:43;;;;;;;15.70;3.50;;;7.30;99.90;;;;;;5107631;27;20031;-70
2023/03/26 06:55:09;;;;;;;22.45;4.68;;;7.30;99.90;;;;;;5113784;27;20027;-70
2023/03/26 06:57:36;;;;;;;25.85;4.10;;;7.30;99.90;;;;;;5106087;27;20035;-70
2023/03/26 07:00:03;;;;;;;24.70;3.95;;;7.30;99.90;;;;;;5120699;27;20486;-69
2023/03/26 07:02:29;;;;;;;17.70;3.55;;;7.30;99.90;;;;;;5108852;27;20070;-69
2023/03/26 07:04:54;;;;;;;21.25;3.47;;;7.40;99.90;;;;;;5112009;27;20043;-70
2023/03/26 07:07:22;;;;;;;21.35;3.35;;;7.40;99.90;;;;;;5111788;27;20055;-69
2023/03/26 07:09:48;;;;;;;18.17;3.53;;;7.50;99.90;;;;;;5102536;27;20043;-69
2023/03/26 07:12:14;;;;;;;21.05;3.50;;;7.40;99.90;;;;;;5104136;27;20038;-70
2023/03/26 07:14:40;;;;;;;20.42;3.88;;;7.40;99.90;;;;;;5094377;27;20032;-71
2023/03/26 07:17:05;;;;;;;20.67;3.63;;;7.50;99.90;;;;;;5106080;27;20079;-69
2023/03/26 07:19:31;;;;;;;24.33;3.28;;;7.50;99.90;;;;;;5100588;27;20077;-70
2023/03/26 07:21:57;;;;;;;16.38;2.97;;;7.40;99.90;;;;;;5109222;27;20086;-71
2023/03/26 07:24:23;;;;;;;18.90;2.50;;;7.50;99.90;;;;;;5104443;27;20043;-70
2023/03/26 07:26:59;;;;;;;19.48;3.20;;;7.60;99.90;;;;;;5110256;27;20069;-69
2023/03/26 07:29:40;;;;;;;21.30;3.28;;;7.50;99.90;;;;;;5110503;27;20521;-69
2023/03/26 07:32:34;;;;;;;22.92;3.70;;;7.50;99.90;;;;;;5094826;28;20054;-70
2023/03/26 07:35:12;;;;;;;25.73;4.00;;;7.60;99.90;;;;;;5104472;27;20075;-69
2023/03/26 07:37:59;;;;;;;23.05;3.50;;;7.50;99.90;;;;;;5115362;27;20080;-69
2023/03/26 07:40:45;;;;;;;20.20;4.18;;;7.60;99.90;;;;;;5103737;27;20043;-70
2023/03/26 07:43:27;;;;;;;24.13;4.30;;;7.60;99.90;;;;;;5107847;28;20534;-70
2023/03/26 07:45:53;;;;;;;25.80;4.82;;;7.60;99.90;;;;;;5109394;27;20043;-69
2023/03/26 07:48:26;;;;;;;28.25;3.75;;;7.60;99.90;;;;;;5105748;27;20043;-70
2023/03/26 07:50:52;;;;;;;21.45;3.78;;;7.60;99.90;;;;;;5104532;27;20039;-69
2023/03/26 07:53:19;;;;;;;20.27;3.75;;;7.70;99.90;;;;;;5104287;27;20073;-70
2023/03/26 07:56:05;;;;;;;24.00;3.45;;;7.60;99.90;;;;;;5099862;27;20288;-70
2023/03/26 07:58:47;;;;;;;23.13;3.88;;;7.60;99.90;;;;;;5093885;27;20050;-70
2023/03/26 08:01:42;;;;;;;24.88;2.30;;;7.60;99.90;;;;;;5086749;27;20110;-70
2023/03/26 08:04:43;;;;;;;16.08;2.40;;;7.60;99.90;;;;;;5108661;27;20053;-69
2023/03/26 08:07:27;;;;;;;16.88;2.80;;;7.70;99.90;;;;;;5009799;28;20520;-69
2023/03/26 08:10:16;;;;;;;20.98;3.65;;;7.70;99.90;;;;;;5100637;27;20217;-69
2023/03/26 08:13:16;;;;;;;22.05;3.55;;;7.70;99.90;;;;;;5106302;27;20173;-70
2023/03/26 08:16:12;;;;;;;22.50;3.78;;;7.70;99.90;;;;;;5106691;27;20043;-70
2023/03/26 08:18:58;;;;;;;14.15;2.08;;;7.80;99.90;;;;;;5097802;27;20133;-70
2023/03/26 08:21:32;;;;;;;23.33;2.95;;;7.90;99.90;;;;;;5099797;27;20043;-69
2023/03/26 08:24:15;;;;;;;25.10;3.20;;;7.90;99.90;;;;;;5097667;27;20042;-70
2023/03/26 08:27:07;;;;;;;16.85;3.08;;;7.90;99.90;;;;;;5104448;27;20035;-70
2023/03/26 08:30:00;;;;;;;20.13;3.28;;;7.90;99.90;;;;;;5117056;27;20054;-70
2023/03/26 08:32:25;;;;;;;;;;;7.90;99.90;;;;;;5101723;27;20035;-70
2023/03/26 08:34:51;;;;;;;21.85;3.08;;;8.00;99.90;;;;;;5098989;27;19930;-71
2023/03/26 08:37:17;;;;;;;18.98;3.08;;;8.00;99.90;;;;;;5106627;27;20031;-70
2023/03/26 08:39:42;;;;;;;20.45;3.35;;;8.00;99.90;;;;;;5096397;27;20156;-70
2023/03/26 08:42:20;;;;;;;18.17;2.97;;;8.00;99.90;;;;;;5101720;27;20039;-71
2023/03/26 08:45:06;;;;;;;19.02;3.75;;;8.00;99.90;;;;;;5119974;27;20034;-70
2023/03/26 08:48:02;;;;;;;20.27;2.78;;;7.90;99.90;;;;;;5099965;27;20031;-70
2023/03/26 08:50:40;;;;;;;26.90;3.55;;;8.00;99.90;;;;;;5102929;27;20402;-69
2023/03/26 08:53:24;;;;;;;27.88;3.38;;;7.90;99.90;;;;;;5096308;27;20039;-69
2023/03/26 08:56:02;;;;;;;18.08;3.00;;;7.90;99.90;;;;;;5101684;27;20039;-70
2023/03/26 08:58:51;;;;;;;22.00;4.05;;;7.80;99.90;;;;;;5101785;27;20553;-70
2023/03/26 09:01:30;;;;;;;24.80;3.30;;;7.80;99.90;;;;;;5102516;27;20131;-69
2023/03/26 09:04:46;;;;;;;21.33;3.10;;;7.90;99.90;;;;;;5096941;27;20049;-70
2023/03/26 09:07:35;;;;;;;16.55;3.13;;;7.90;99.90;;;;;;5072072;27;20433;-70
2023/03/26 09:10:22;;;;;;;21.67;2.97;;;7.90;99.90;;;;;;5104206;27;20051;-70
2023/03/26 09:12:59;;;;;;;19.65;3.22;;;7.90;99.90;;;;;;5092262;27;20062;-69
2023/03/26 09:15:56;;;;;;;24.58;3.75;;;8.00;99.90;;;;;;5106053;27;20118;-70
2023/03/26 09:18:49;;;;;;;20.00;3.25;;;8.00;99.90;;;;;;5095742;27;20039;-69
2023/03/26 09:21:24;;;;;;;20.48;3.05;;;8.10;99.90;;;;;;5101800;27;20180;-70
2023/03/26 09:24:27;;;;;;;24.13;3.30;;;8.10;99.90;;;;;;5097508;27;20638;-69
2023/03/26 09:27:08;;;;;;;24.05;3.28;;;8.10;99.90;;;;;;5097336;27;20036;-69
2023/03/26 09:30:03;;;;;;;26.25;3.55;;;8.10;99.90;;;;;;5094468;27;20109;-69
2023/03/26 09:32:53;;;;;;;15.35;2.55;;;8.20;99.90;;;;;;5096588;27;20047;-69
2023/03/26 09:35:43;;;;;;;21.70;3.35;;;8.20;99.90;;;;;;5090729;28;20659;-69
2023/03/26 09:38:39;;;;;;;19.98;3.40;;;8.20;99.90;;;;;;5097293;27;20202;-69
2023/03/26 09:41:17;;;;;;;21.55;3.00;;;8.30;99.90;;;;;;5099903;28;20043;-69
2023/03/26 09:43:45;;;;;;;14.20;2.60;;;8.40;99.90;;;;;;5101913;28;20511;-69
2023/03/26 09:46:36;;;;;;;16.08;2.25;;;8.40;99.90;;;;;;5106333;28;20491;-68
2023/03/26 09:49:28;;;;;;;10.57;1.80;;;8.40;99.90;;;;;;5104774;28;20082;-68
2023/03/26 09:52:16;;;;;;;13.52;2.08;;;8.50;99.90;;;;;;5112046;27;20043;-69
2023/03/26 09:54:43;;;;;;;17.20;2.95;;;8.60;99.90;;;;;;5103374;28;20129;-68
2023/03/26 09:57:25;;;;;;;15.68;2.55;;;8.50;99.90;;;;;;5107194;28;20039;-69
2023/03/26 10:00:26;;;;;;;20.52;2.95;;;8.60;99.90;;;;;;5098257;28;20816;-69
2023/03/26 10:03:10;;;;;;;9.80;1.70;;;8.60;99.90;;;;;;5097640;28;20398;-68
2023/03/26 10:05:55;;;;;;;19.75;3.17;;;8.60;99.90;;;;;;5101218;28;20104;-69
2023/03/26 10:08:29;;;;;;;10.60;2.03;;;8.70;99.90;;;;;;5106749;27;20558;-68
2023/03/26 10:11:26;;;;;;;16.63;3.72;;;8.70;99.90;;;;;;5101399;28;20034;-67
2023/03/26 10:14:17;;;;;;;20.77;2.80;;;8.70;99.90;;;;;;5102523;28;20178;-69
2023/03/26 10:17:03;;;;;;;16.10;2.78;;;8.70;99.90;;;;;;5103886;28;20482;-68
2023/03/26 10:20:03;;;;;;;13.45;2.65;;;8.80;99.90;;;;;;5120423;27;20262;-68
2023/03/26 10:23:17;;;;;;;18.17;2.55;;;8.80;99.90;;;;;;5104739;27;20050;-68
2023/03/26 10:26:04;;;;;;;21.27;3.00;;;8.80;99.90;;;;;;5097024;27;20047;-68
2023/03/26 10:28:58;;;;;;;13.68;2.20;;;8.90;99.90;;;;;;5108478;27;20043;-70
2023/03/26 10:31:51;;;;;;;15.68;2.90;;;8.90;99.90;;;;;;5108223;27;20095;-69
2023/03/26 10:34:45;;;;;;;16.17;2.47;;;8.70;99.90;;;;;;5107388;27;20513;-67
2023/03/26 10:37:19;;;;;;;19.05;3.30;;;8.70;99.90;;;;;;5105790;27;20513;-67
2023/03/26 10:40:22;;;;;;;13.60;2.35;;;8.70;99.90;;;;;;5122434;27;20078;-68
2023/03/26 10:43:06;;;;;;;11.65;2.35;;;8.80;99.90;;;;;;5116543;27;20043;-68
2023/03/26 10:45:45;;;;;;;11.25;2.15;;;8.80;99.90;;;;;;5112338;27;20121;-67
2023/03/26 10:48:32;;;;;;;12.60;2.33;;;8.70;99.90;;;;;;5098860;27;20056;-68
2023/03/26 10:51:23;;;;;;;9.95;1.90;;;8.80;99.90;;;;;;5111057;27;20046;-68
2023/03/26 10:53:54;;;;;;;21.40;2.70;;;8.90;99.90;;;;;;5104917;27;20039;-67
2023/03/26 10:56:37;;;;;;;17.38;2.50;;;8.90;99.90;;;;;;5102627;27;20051;-67
2023/03/26 10:59:12;;;;;;;15.02;2.70;;;9.00;99.90;;;;;;5105657;27;20047;-68
2023/03/26 11:01:45;;;;;;;12.25;2.35;;;9.10;99.90;;;;;;5110224;28;20043;-69
2023/03/26 11:04:35;;;;;;;14.18;2.22;;;9.30;99.90;;;;;;5103560;27;20047;-68
2023/03/26 11:07:22;;;;;;;17.50;2.67;;;9.50;99.90;;;;;;5108924;27;20079;-69
2023/03/26 11:10:00;;;;;;;5.35;1.52;;;9.70;99.90;;;;;;5103852;27;20394;-68
2023/03/26 11:12:40;;;;;;;11.88;2.08;;;9.80;99.90;;;;;;5103471;27;20508;-68
2023/03/26 11:15:30;;;;;;;5.00;1.30;;;9.90;99.90;;;;;;5105110;27;20039;-68
2023/03/26 11:18:14;;;;;;;13.75;2.58;;;10.00;99.90;;;;;;5101868;27;20050;-68
2023/03/26 11:20:47;;;;;;;10.75;1.95;;;10.00;99.90;;;;;;5106573;27;20045;-69
2023/03/26 11:23:50;;;;;;;14.70;2.00;;;10.10;99.90;;;;;;5103833;27;20042;-68
2023/03/26 11:26:23;;;;;;;11.93;2.38;;;10.20;99.90;;;;;;5121265;27;20047;-68
2023/03/26 11:29:03;;;;;;;11.00;1.80;;;10.30;99.90;;;;;;5091538;27;20119;-67
2023/03/26 11:31:49;;;;;;;6.57;1.67;;;10.40;99.90;;;;;;5126242;27;20042;-68
2023/03/26 11:34:19;;;;;;;9.32;1.90;;;10.30;99.90;;;;;;5096176;27;20428;-68
2023/03/26 11:36:52;;;;;;;12.60;2.03;;;10.10;99.90;;;;;;5118491;27;20127;-68
2023/03/26 11:39:24;;;;;;;13.35;2.13;;;10.00;99.90;;;;;;5101790;27;20538;-67
2023/03/26 11:41:55;;;;;;;12.35;1.98;;;9.90;99.90;;;;;;5117286;27;20059;-67
2023/03/26 11:44:55;;;;;;;9.52;1.98;;;9.90;99.90;;;;;;5107955;27;20034;-68
2023/03/26 11:47:29;;;;;;;12.32;2.17;;;9.80;99.90;;;;;;5077352;27;20482;-68
2023/03/26 11:49:59;;;;;;;10.98;2.28;;;9.80;99.90;;;;;;5108512;27;20130;-68
2023/03/26 11:52:25;;;;;;;17.92;1.80;;;9.70;99.90;;;;;;5122298;27;20039;-67
2023/03/26 11:54:51;;;;;;;9.35;1.75;;;9.60;99.90;;;;;;5115709;27;20043;-67
2023/03/26 11:57:29;;;;;;;14.52;2.10;;;9.60;99.90;;;;;;5101483;27;20039;-67
2023/03/26 12:00:15;;;;;;;7.35;1.65;;;9.60;99.90;;;;;;5111820;27;20047;-68
2023/03/26 12:02:41;;;;;;;13.65;2.17;;;9.70;99.90;;;;;;5102444;27;20115;-67
2023/03/26 12:05:20;;;;;;;15.48;2.40;;;9.60;99.90;;;;;;5118339;27;20039;-68
2023/03/26 12:07:55;;;;;;;11.38;2.33;;;9.60;99.90;;;;;;5109541;27;20119;-68
2023/03/26 12:10:25;;;;;;;16.35;2.05;;;9.80;99.90;;;;;;5113129;27;20039;-68
2023/03/26 12:12:54;;;;;;;9.70;2.22;;;9.70;99.90;;;;;;5100636;27;20378;-68
2023/03/26 12:15:21;;;;;;;10.15;1.60;;;9.80;99.90;;;;;;5086890;27;20439;-68
2023/03/26 12:17:52;;;;;;;11.82;2.00;;;9.90;99.90;;;;;;5109175;27;20535;-68
2023/03/26 12:20:31;;;;;;;9.57;1.52;;;9.80;99.90;;;;;;5103541;27;20035;-66
2023/03/26 12:22:59;;;;;;;14.18;2.47;;;9.80;99.90;;;;;;5109580;27;20049;-67
2023/03/26 12:25:30;;;;;;;12.48;1.55;;;9.70;99.90;;;;;;5104836;27;20516;-68
2023/03/26 12:28:12;;;;;;;10.63;2.00;;;9.60;99.90;;;;;;5102568;27;20035;-67
2023/03/26 12:30:40;;;;;;;15.02;2.90;;;9.50;99.90;;;;;;5100888;27;20054;-67
2023/03/26 12:33:40;;;;;;;19.73;3.20;;;9.40;99.90;;;;;;5102408;27;20043;-68
2023/03/26 12:36:27;;;;;;;18.02;2.38;;;9.40;99.90;;;;;;5069798;27;20048;-67
2023/03/26 12:38:53;;;;;;;16.40;2.28;;;9.30;99.90;;;;;;5108222;27;20035;-68
2023/03/26 12:41:32;;;;;;;12.35;2.55;;;9.40;99.90;;;;;;5105137;27;20092;-67
2023/03/26 12:44:22;;;;;;;19.67;3.40;;;9.40;99.90;;;;;;5104214;27;20066;-67
2023/03/26 12:46:52;;;;;;;11.52;1.70;;;9.40;99.90;;;;;;5096745;28;20043;-68
2023/03/26 12:49:19;;;;;;;15.70;2.88;;;9.40;99.90;;;;;;5094733;27;20907;-68
2023/03/26 12:52:17;;;;;;;16.83;2.80;;;9.40;99.90;;;;;;5106410;27;20045;-67
2023/03/26 12:54:54;;;;;;;15.52;2.47;;;9.40;99.90;;;;;;5099228;27;20535;-67
2023/03/26 12:57:29;;;;;;;5.47;1.50;;;9.40;99.90;;;;;;5107669;27;20512;-68
2023/03/26 13:00:24;;;;;;;16.10;2.70;;;9.30;99.90;;;;;;5101277;27;20043;-68
2023/03/26 13:03:13;;;;;;;16.25;2.40;;;9.30;99.90;;;;;;5104000;27;20074;-68
2023/03/26 13:06:00;;;;;;;13.60;2.05;;;9.50;99.90;;;;;;5124345;27;20484;-67
2023/03/26 13:08:54;;;;;;;14.50;2.60;;;9.60;99.90;;;;;;5104359;27;20043;-67
2023/03/26 13:12:02;;;;;;;10.20;2.00;;;9.50;99.90;;;;;;5104935;27;20539;-67
2023/03/26 13:15:08;;;;;;;12.10;1.83;;;9.40;99.90;;;;;;5100532;27;20043;-67
2023/03/26 13:17:53;;;;;;;5.13;1.58;;;9.40;99.90;;;;;;5123866;27;20502;-67
2023/03/26 13:20:38;;;;;;;11.63;2.30;;;9.30;99.90;;;;;;5103358;27;20115;-67
2023/03/26 13:23:29;;;;;;;9.82;2.13;;;9.30;99.90;;;;;;5104456;27;20042;-67
2023/03/26 13:26:25;;;;;;;13.52;1.67;;;9.20;99.90;;;;;;5093261;28;20042;-67